EDT,Max TemperatureF,Mean TemperatureF,Min TemperatureF,Max Dew PointF,MeanDew PointF,Min DewpointF,Max Humidity, Mean Humidity, Min Humidity, Max Sea Level PressureIn, Mean Sea Level PressureIn, Min Sea Level PressureIn, Max VisibilityMiles, Mean VisibilityMiles, Min VisibilityMiles, Max Wind SpeedMPH, Mean Wind SpeedMPH, Max Gust SpeedMPH,PrecipitationIn, CloudCover, Events, WindDirDegrees
2014-5-1,61,54,46,44,40,36,86,63,40,29.95,29.93,29.91,10,10,10,22,10,29,0.00,6,,238
2014-5-2,61,52,43,41,40,37,83,66,49,29.96,29.93,29.90,10,10,10,16,7,20,0.00,4,,244
2014-5-3,71,57,43,45,41,36,89,61,33,29.98,29.91,29.87,10,10,10,24,11,34,0.00,2,,234
2014-5-4,79,65,50,53,47,39,71,53,35,30.00,29.96,29.91,10,10,10,17,8,22,0.00,0,,235
2014-5-5,85,69,52,55,47,36,64,49,34,29.98,29.88,29.77,10,10,10,22,10,29,0.00,0,,150
2014-5-6,83,68,52,62,55,47,83,63,43,29.92,29.88,29.85,10,10,10,13,5,16,0.00,0,,84
2014-5-7,84,72,59,58,55,52,78,55,32,30.03,29.97,29.90,10,10,10,20,11,23,0.00,0,,189
2014-5-8,85,74,62,61,55,52,72,53,34,30.12,30.05,29.99,10,10,10,22,11,26,0.00,1,,199
2014-5-9,75,68,61,64,59,52,79,66,53,30.04,29.97,29.90,10,9,2,30,11,36,0.44,4,Rain-Thunderstorm,203
2014-5-10,75,67,58,63,60,53,97,82,66,30.04,29.99,29.95,10,9,4,23,9,32,0.52,6,Rain-Thunderstorm,199
2014-5-11,82,70,57,67,63,56,100,79,58,30.14,30.07,30.00,10,9,2,14,6,17,0.02,2,Rain,161
2014-5-12,86,77,67,69,65,62,87,69,51,30.13,30.06,30.01,10,10,10,17,10,23,0.00,1,,193
2014-5-13,85,75,65,67,64,61,87,69,51,30.12,30.06,30.01,10,10,10,21,9,32,T,1,Thunderstorm,194
2014-5-14,80,71,62,67,63,59,93,78,62,30.09,29.99,29.88,10,6,0,31,6,50,2.09,6,Fog-Rain-Thunderstorm,262
2014-5-15,66,56,46,63,50,43,93,80,66,30.09,29.94,29.76,10,9,2,22,10,28,0.25,8,Rain,246
2014-5-16,59,50,41,46,41,32,93,67,40,30.11,30.03,29.99,10,10,6,24,8,31,0.03,5,Rain,233
2014-5-17,62,50,38,42,38,35,86,63,40,30.25,30.17,30.09,10,10,8,15,6,20,0.00,2,,260
2014-5-18,66,53,39,41,39,36,92,65,37,30.29,30.26,30.23,10,10,10,15,4,19,0.00,2,,54
2014-5-19,73,58,42,46,41,37,77,56,35,30.30,30.22,30.12,10,10,10,13,6,17,0.00,0,,116
2014-5-20,82,70,58,61,55,45,77,60,43,30.14,30.07,29.99,10,10,10,23,11,32,0.00,2,,188
2014-5-21,84,74,63,67,61,54,90,74,57,30.06,30.01,29.94,10,8,0,35,12,57,1.38,5,Fog-Rain-Thunderstorm,246
2014-5-22,84,74,63,68,62,55,90,71,51,30.07,30.02,29.97,10,9,2,25,9,39,0.37,4,Rain-Thunderstorm,270
2014-5-23,77,67,56,55,51,49,78,58,38,30.14,30.10,30.04,10,10,10,14,6,18,T,2,,2
2014-5-24,79,66,52,54,50,47,83,61,39,30.21,30.15,30.12,10,10,10,12,6,19,0.00,0,,75
2014-5-25,79,66,53,57,53,48,89,63,36,30.18,30.13,30.09,10,10,9,13,4,17,0.00,0,,118
2014-5-26,87,73,58,67,62,52,84,65,45,30.16,30.09,30.03,10,10,10,18,7,24,0.00,1,,194
2014-5-27,88,78,68,68,65,62,84,65,46,30.09,30.02,29.96,10,10,9,17,8,23,0.16,1,Thunderstorm,224
2014-5-28,82,74,65,70,66,63,93,81,69,30.05,30.00,29.97,10,8,2,16,4,21,0.13,3,Rain-Thunderstorm,182
2014-5-29,84,74,64,67,65,61,90,73,55,30.08,30.03,29.98,10,10,9,8,3,11,0.04,3,,124
2014-5-30,85,75,65,69,65,59,93,74,55,30.11,30.07,30.04,10,10,9,14,6,17,0.00,2,,76
2014-5-31,85,74,62,57,55,53,72,55,37,30.19,30.12,30.07,10,10,10,20,10,26,0.00,0,,68